createdAt,value
2018-02-11T00:01:53.485Z,93.93
2018-02-11T00:04:20.373Z,90.25
2018-02-11T00:06:47.224Z,87.03
2018-02-11T00:09:14.080Z,105.82
2018-02-11T00:11:40.878Z,88.47
2018-02-11T00:14:07.734Z,83.37
2018-02-11T00:16:34.657Z,78.93
2018-02-11T00:19:01.466Z,99.43
2018-02-11T00:21:28.277Z,87.20
2018-02-11T00:23:55.245Z,82.43
2018-02-11T00:26:22.072Z,85.85
2018-02-11T00:28:49.612Z,84.62
2018-02-11T00:31:16.437Z,92.85
2018-02-11T00:33:43.352Z,86.53
2018-02-11T00:36:10.925Z,91.60
2018-02-11T00:38:37.741Z,82.97
2018-02-11T00:41:05.321Z,80.62
2018-02-11T00:43:32.214Z,75.82
2018-02-11T00:45:59.073Z,79.40
2018-02-11T00:48:25.857Z,90.57
2018-02-11T00:50:53.418Z,86.70
2018-02-11T00:53:21.041Z,101.35
2018-02-11T00:55:47.997Z,96.80
2018-02-11T00:58:14.850Z,98.30
2018-02-11T01:00:41.689Z,87.40
2018-02-11T01:03:09.305Z,87.62
2018-02-11T01:05:36.125Z,82.78
2018-02-11T01:08:09.992Z,84.50
2018-02-11T01:10:36.942Z,75.82
2018-02-11T01:13:04.561Z,74.93
2018-02-11T01:15:31.382Z,82.75
2018-02-11T01:17:58.203Z,88.50
2018-02-11T01:20:25.752Z,78.85
2018-02-11T01:22:53.419Z,88.03
2018-02-11T01:25:20.981Z,73.43
2018-02-11T01:27:47.806Z,70.15
2018-02-11T01:30:14.652Z,67.75
2018-02-11T01:32:41.450Z,84.80
2018-02-11T01:35:08.269Z,80.82
2018-02-11T01:37:35.169Z,80.38
2018-02-11T01:40:02.030Z,78.35
2018-02-11T01:42:28.950Z,60.90
2018-02-11T01:44:55.750Z,72.15
2018-02-11T01:47:22.585Z,75.37
2018-02-11T01:50:01.786Z,79.97
2018-02-11T01:52:29.402Z,79.65
2018-02-11T01:54:56.229Z,78.85
2018-02-11T01:57:23.036Z,78.85
2018-02-11T01:59:49.872Z,67.95
2018-02-11T02:02:16.841Z,72.25
2018-02-11T02:04:43.665Z,87.22
2018-02-11T02:07:11.233Z,74.03
2018-02-11T02:09:38.806Z,81.53
2018-02-11T02:12:05.653Z,82.47
2018-02-11T02:14:32.474Z,76.15
2018-02-11T02:17:00.050Z,73.35
2018-02-11T02:19:27.618Z,81.18
2018-02-11T02:21:54.434Z,79.37
2018-02-11T02:24:22.081Z,72.85
2018-02-11T02:26:48.958Z,79.45
2018-02-11T02:29:16.486Z,81.90
2018-02-11T02:31:43.342Z,82.72
2018-02-11T02:34:10.945Z,77.10
2018-02-11T02:36:37.998Z,80.80
2018-02-11T02:39:04.894Z,75.57
2018-02-11T02:41:32.473Z,82.75
2018-02-11T02:44:00.122Z,83.35
2018-02-11T02:46:26.937Z,71.95
2018-02-11T02:48:53.744Z,68.75
2018-02-11T02:51:20.614Z,74.45
2018-02-11T02:53:47.534Z,66.55
2018-02-11T02:56:14.358Z,73.15
2018-02-11T02:58:41.213Z,79.53
2018-02-11T03:01:08.034Z,78.40
2018-02-11T03:03:34.936Z,80.60
2018-02-11T03:06:01.782Z,93.28
2018-02-11T03:08:28.624Z,85.70
2018-02-11T03:10:55.463Z,76.57
2018-02-11T03:13:23.089Z,75.07
2018-02-11T03:15:49.929Z,82.53
2018-02-11T03:18:16.778Z,68.07
2018-02-11T03:20:43.586Z,73.15
2018-02-11T03:23:10.525Z,89.82
2018-02-11T03:25:37.353Z,84.75
2018-02-11T03:28:04.918Z,77.35
2018-02-11T03:30:31.741Z,74.20
2018-02-11T03:32:58.685Z,79.62
2018-02-11T03:35:25.489Z,71.18
2018-02-11T03:37:52.325Z,72.50
2018-02-11T03:40:19.161Z,76.28
2018-02-11T03:42:46.166Z,73.18
2018-02-11T03:45:13.733Z,68.20
2018-02-11T03:47:41.298Z,70.53
2018-02-11T03:50:08.884Z,69.97
2018-02-11T03:52:35.786Z,76.30
2018-02-11T03:55:03.394Z,74.37
2018-02-11T03:57:30.918Z,77.30
2018-02-11T03:59:58.492Z,80.43
2018-02-11T04:02:25.417Z,80.78
2018-02-11T04:04:53.014Z,70.25
2018-02-11T04:07:19.816Z,84.72
2018-02-11T04:09:47.425Z,70.45
2018-02-11T04:12:14.262Z,88.10
2018-02-11T04:14:41.062Z,90.93
2018-02-11T04:17:08.006Z,72.68
2018-02-11T04:19:35.549Z,76.03
2018-02-11T04:22:02.384Z,72.90
2018-02-11T04:24:29.366Z,88.95
2018-02-11T04:26:56.173Z,80.38
2018-02-11T04:29:23.033Z,98.47
2018-02-11T04:31:50.734Z,89.78
2018-02-11T04:34:17.601Z,81.28
2018-02-11T04:36:44.417Z,72.53
2018-02-11T04:39:11.249Z,89.00
2018-02-11T04:41:38.810Z,75.43
2018-02-11T04:44:06.438Z,85.43
2018-02-11T04:46:33.249Z,80.85
2018-02-11T04:49:00.043Z,91.85
2018-02-11T04:51:34.554Z,77.78
2018-02-11T04:54:02.209Z,79.22
2018-02-11T04:56:29.031Z,79.65
2018-02-11T04:58:56.622Z,78.05
2018-02-11T05:01:24.202Z,82.68
2018-02-11T05:03:51.118Z,77.72
2018-02-11T05:06:18.674Z,87.03
2018-02-11T05:08:45.534Z,91.65
2018-02-11T05:11:12.413Z,90.80
2018-02-11T05:13:39.310Z,88.10
2018-02-11T05:16:06.893Z,79.37
2018-02-11T05:18:34.424Z,79.82
2018-02-11T05:21:01.365Z,86.15
2018-02-11T05:23:28.189Z,90.87
2018-02-11T05:25:55.005Z,94.90
2018-02-11T05:28:21.853Z,86.43
2018-02-11T05:30:48.633Z,80.30
2018-02-11T05:33:15.458Z,75.70
2018-02-11T05:35:42.406Z,77.55
2018-02-11T05:38:09.225Z,96.22
2018-02-11T05:40:36.030Z,92.35
2018-02-11T05:43:03.669Z,99.62
2018-02-11T05:45:30.521Z,81.60
2018-02-11T05:47:57.385Z,93.35
2018-02-11T05:50:24.293Z,79.35
2018-02-11T05:52:51.109Z,86.53
2018-02-11T05:55:17.941Z,87.55
2018-02-11T05:57:44.770Z,81.87
2018-02-11T06:00:11.645Z,93.22
2018-02-11T06:02:38.598Z,86.10
2018-02-11T06:05:05.456Z,79.70
2018-02-11T06:07:32.987Z,82.75
2018-02-11T06:09:59.833Z,76.40
2018-02-11T06:12:26.697Z,79.47
2018-02-11T06:14:53.562Z,84.93
2018-02-11T06:17:21.185Z,83.37
2018-02-11T06:19:48.061Z,71.78
2018-02-11T06:22:14.997Z,79.95
2018-02-11T06:24:41.793Z,73.75
2018-02-11T06:27:08.645Z,73.35
2018-02-11T06:29:35.470Z,76.65
2018-02-11T06:32:02.314Z,65.53
2018-02-11T06:34:29.294Z,65.57
2018-02-11T06:36:56.102Z,75.22
2018-02-11T06:39:23.053Z,63.63
2018-02-11T06:41:49.869Z,61.65
2018-02-11T06:44:17.535Z,60.03
2018-02-11T06:46:46.435Z,50.03
2018-02-11T06:49:21.864Z,68.50
2018-02-11T06:51:48.696Z,72.30
2018-02-11T06:54:16.337Z,67.65
2018-02-11T06:56:43.266Z,71.62
2018-02-11T06:59:10.282Z,76.93
2018-02-11T07:01:37.189Z,71.70
2018-02-11T07:04:04.981Z,70.28
2018-02-11T07:06:32.081Z,79.72
2018-02-11T07:09:00.478Z,72.10
2018-02-11T07:11:27.553Z,66.07
2018-02-11T07:13:55.534Z,66.00
2018-02-11T07:16:22.577Z,61.10
2018-02-11T07:18:49.554Z,61.67
2018-02-11T07:21:16.479Z,71.78
2018-02-11T07:23:44.275Z,63.17
2018-02-11T07:26:12.023Z,52.72
2018-02-11T07:28:39.617Z,58.38
2018-02-11T07:31:06.478Z,65.60
2018-02-11T07:33:34.082Z,76.65
2018-02-11T07:36:00.961Z,76.55
2018-02-11T07:38:28.035Z,72.85
2018-02-11T07:40:54.918Z,69.05
2018-02-11T07:43:21.801Z,67.47
2018-02-11T07:45:49.405Z,68.35
2018-02-11T07:48:16.226Z,72.15
2018-02-11T07:50:43.163Z,81.20
2018-02-11T07:53:10.961Z,81.85
2018-02-11T07:55:37.926Z,65.12
2018-02-11T07:58:04.905Z,68.82
2018-02-11T08:00:31.796Z,62.05
2018-02-11T08:02:58.659Z,70.47
2018-02-11T08:05:25.637Z,82.32
2018-02-11T08:07:53.250Z,71.87
2018-02-11T08:10:20.072Z,75.43
2018-02-11T08:12:46.997Z,69.28
2018-02-11T08:15:14.953Z,70.97
2018-02-11T08:17:41.893Z,65.90
2018-02-11T08:20:08.721Z,68.70
2018-02-11T08:22:35.577Z,55.72
2018-02-11T08:25:02.458Z,65.75
2018-02-11T08:27:30.026Z,70.22
2018-02-11T08:29:57.145Z,76.65
2018-02-11T08:32:24.994Z,79.75
2018-02-11T08:34:51.830Z,59.25
2018-02-11T08:37:18.690Z,56.60
2018-02-11T08:39:46.252Z,54.20
2018-02-11T08:42:13.893Z,69.32
2018-02-11T08:44:40.774Z,57.83
2018-02-11T08:47:07.882Z,53.20
2018-02-11T08:49:34.801Z,66.75
2018-02-11T08:52:01.618Z,56.72
2018-02-11T08:54:28.545Z,47.20
2018-02-11T08:57:03.058Z,47.67
2018-02-11T08:59:30.668Z,50.65
2018-02-11T09:01:57.477Z,57.78
2018-02-11T09:04:25.475Z,49.30
2018-02-11T09:06:52.614Z,58.70
2018-02-11T09:09:19.705Z,54.22
2018-02-11T09:11:47.451Z,54.28
2018-02-11T09:14:15.165Z,44.13
2018-02-11T09:16:43.720Z,55.85
2018-02-11T09:19:12.743Z,54.25
2018-02-11T09:21:39.618Z,43.42
2018-02-11T09:24:06.520Z,51.17
2018-02-11T09:26:33.486Z,47.05
2018-02-11T09:29:00.338Z,39.67
2018-02-11T09:31:27.179Z,49.80
2018-02-11T09:33:54.810Z,48.63
2018-02-11T09:36:21.622Z,42.22
2018-02-11T09:38:48.441Z,50.05
2018-02-11T09:41:15.301Z,49.95
2018-02-11T09:43:42.285Z,48.95
2018-02-11T09:46:09.118Z,48.15
2018-02-11T09:48:35.937Z,50.85
2018-02-11T09:51:02.865Z,41.33
2018-02-11T09:53:30.470Z,38.53
2018-02-11T09:55:57.289Z,44.25
2018-02-11T09:58:24.150Z,53.95
2018-02-11T10:00:50.970Z,58.85
2018-02-11T10:03:17.767Z,44.90
2018-02-11T10:05:45.366Z,47.00
2018-02-11T10:08:12.189Z,43.00
2018-02-11T10:10:38.998Z,36.13
2018-02-11T10:13:05.929Z,38.25
2018-02-11T10:15:40.461Z,36.05
2018-02-11T10:18:07.323Z,42.70
2018-02-11T10:20:34.170Z,38.42
2018-02-11T10:23:01.058Z,38.17
2018-02-11T10:25:27.897Z,41.42
2018-02-11T10:27:54.710Z,35.03
2018-02-11T10:30:21.574Z,32.63
2018-02-11T10:32:48.430Z,39.92
2018-02-11T10:35:15.268Z,40.90
2018-02-11T10:37:42.086Z,34.33
2018-02-11T10:40:08.929Z,34.22
2018-02-11T10:42:35.930Z,33.35
2018-02-11T10:45:03.520Z,31.12
2018-02-11T10:47:30.355Z,31.37
2018-02-11T10:49:57.205Z,30.05
2018-02-11T10:52:24.102Z,33.35
2018-02-11T10:54:50.947Z,30.10
2018-02-11T10:57:17.777Z,33.73
2018-02-11T10:59:44.613Z,37.77
2018-02-11T11:02:11.509Z,31.83
2018-02-11T11:04:39.075Z,28.40
2018-02-11T11:07:05.897Z,34.77
2018-02-11T11:09:32.878Z,35.13
2018-02-11T11:11:59.709Z,38.57
2018-02-11T11:14:26.614Z,31.83
2018-02-11T11:16:53.573Z,31.63
2018-02-11T11:19:21.173Z,32.10
2018-02-11T11:21:48.002Z,30.57
2018-02-11T11:24:14.946Z,30.13
2018-02-11T11:26:41.806Z,26.20
2018-02-11T11:29:08.646Z,27.83
2018-02-11T11:31:35.505Z,26.50
2018-02-11T11:34:02.401Z,29.57
2018-02-11T11:36:29.961Z,27.27
2018-02-11T11:38:57.547Z,27.43
2018-02-11T11:41:24.698Z,25.50
2018-02-11T11:43:51.701Z,30.03
2018-02-11T11:46:18.518Z,29.90
2018-02-11T11:48:45.406Z,26.70
2018-02-11T11:51:12.317Z,32.07
2018-02-11T11:53:39.160Z,32.47
2018-02-11T11:56:06.198Z,30.40
2018-02-11T11:58:33.870Z,25.20
2018-02-11T12:01:00.966Z,30.50
2018-02-11T12:03:28.118Z,29.50
2018-02-11T12:05:55.049Z,36.23
2018-02-11T12:08:22.770Z,28.23
2018-02-11T12:10:49.662Z,29.63
2018-02-11T12:13:17.333Z,27.33
2018-02-11T12:15:45.021Z,27.13
2018-02-11T12:18:11.911Z,31.30
2018-02-11T12:20:38.741Z,26.67
2018-02-11T12:23:05.745Z,27.40
2018-02-11T12:25:32.859Z,25.17
2018-02-11T12:28:00.537Z,24.77
2018-02-11T12:30:27.445Z,24.43
2018-02-11T12:32:54.406Z,24.07
2018-02-11T12:35:21.361Z,26.47
2018-02-11T12:37:48.241Z,29.80
2018-02-11T12:40:15.329Z,27.40
2018-02-11T12:42:42.688Z,30.60
2018-02-11T12:45:09.671Z,28.67
2018-02-11T12:47:36.630Z,30.83
2018-02-11T12:50:03.722Z,28.20
2018-02-11T12:52:30.719Z,32.33
2018-02-11T12:54:57.623Z,30.20
2018-02-11T12:57:25.399Z,28.70
2018-02-11T12:59:52.399Z,30.63
2018-02-11T13:02:20.326Z,25.80
2018-02-11T13:04:47.370Z,29.47
2018-02-11T13:07:14.325Z,28.00
2018-02-11T13:09:42.018Z,26.90
2018-02-11T13:12:09.013Z,28.00
2018-02-11T13:14:36.042Z,28.70
2018-02-11T13:17:02.846Z,27.73
2018-02-11T13:19:29.659Z,27.00
2018-02-11T13:21:57.427Z,27.50
2018-02-11T13:24:25.026Z,26.13
2018-02-11T13:26:51.957Z,26.30
2018-02-11T13:29:18.998Z,28.50
2018-02-11T13:31:46.016Z,29.52
2018-02-11T13:34:12.937Z,29.97
2018-02-11T13:36:39.950Z,28.40
2018-02-11T13:39:06.814Z,29.63
2018-02-11T13:41:33.783Z,28.93
2018-02-11T13:44:01.573Z,29.80
2018-02-11T13:46:28.461Z,31.50
2018-02-11T13:48:56.077Z,29.87
2018-02-11T13:51:22.945Z,28.57
2018-02-11T13:53:49.933Z,30.30
2018-02-11T13:56:17.149Z,28.93
2018-02-11T13:58:44.062Z,37.93
2018-02-11T14:01:11.155Z,30.13
2018-02-11T14:03:38.886Z,33.10
2018-02-11T14:06:05.838Z,29.27
2018-02-11T14:08:32.874Z,27.77
2018-02-11T14:10:59.898Z,30.07
2018-02-11T14:13:26.909Z,33.17
2018-02-11T14:15:53.760Z,34.27
2018-02-11T14:18:20.585Z,24.63
2018-02-11T14:20:47.617Z,26.47
2018-02-11T14:23:14.615Z,30.07
2018-02-11T14:25:41.449Z,32.17
2018-02-11T14:28:09.161Z,33.55
2018-02-11T14:30:36.140Z,50.35
2018-02-11T14:33:03.191Z,31.52
2018-02-11T14:35:30.150Z,29.60
2018-02-11T14:37:57.142Z,32.75
2018-02-11T14:40:24.804Z,32.38
2018-02-11T14:42:51.800Z,30.85
2018-02-11T14:45:18.743Z,37.33
2018-02-11T14:47:46.318Z,32.92
2018-02-11T14:50:13.896Z,30.08
2018-02-11T14:52:41.853Z,31.87
2018-02-11T14:55:16.939Z,35.72
2018-02-11T14:57:44.138Z,34.20
2018-02-11T15:00:10.991Z,32.15
2018-02-11T15:02:38.606Z,36.20
2018-02-11T15:05:05.499Z,40.15
2018-02-11T15:07:33.078Z,42.83
2018-02-11T15:09:59.897Z,32.70
2018-02-11T15:12:27.563Z,31.75
2018-02-11T15:15:02.062Z,36.90
2018-02-11T15:17:32.329Z,39.50
2018-02-11T15:19:59.423Z,38.85
2018-02-11T15:22:26.349Z,37.58
2018-02-11T15:24:53.458Z,33.95
2018-02-11T15:27:20.438Z,35.85
2018-02-11T15:29:47.298Z,41.58
2018-02-11T15:32:14.190Z,34.03
2018-02-11T15:34:41.858Z,31.42
2018-02-11T15:37:08.696Z,35.13
2018-02-11T15:39:35.555Z,37.05
2018-02-11T15:42:02.462Z,38.80
2018-02-11T15:44:30.102Z,32.97
2018-02-11T15:46:56.929Z,34.08
2018-02-11T15:49:23.797Z,29.98
2018-02-11T15:51:51.709Z,36.67
2018-02-11T15:54:18.687Z,36.88
2018-02-11T15:56:45.602Z,36.67
2018-02-11T15:59:19.915Z,38.42
2018-02-11T16:01:46.890Z,38.95
2018-02-11T16:04:14.534Z,37.38
2018-02-11T16:06:41.439Z,39.55
2018-02-11T16:09:08.326Z,35.15
2018-02-11T16:11:35.264Z,34.97
2018-02-11T16:14:03.007Z,42.08
2018-02-11T16:16:29.896Z,39.72
2018-02-11T16:18:56.842Z,42.20
2018-02-11T16:21:23.833Z,42.72
2018-02-11T16:23:50.762Z,39.92
2018-02-11T16:26:18.482Z,41.50
2018-02-11T16:28:45.331Z,38.95
2018-02-11T16:31:13.093Z,43.97
2018-02-11T16:33:40.211Z,44.17
2018-02-11T16:36:07.258Z,41.00
2018-02-11T16:38:34.326Z,39.33
2018-02-11T16:41:01.318Z,41.42
2018-02-11T16:43:28.373Z,42.30
2018-02-11T16:45:55.312Z,40.95
2018-02-11T16:48:22.366Z,45.67
2018-02-11T16:50:49.985Z,43.40
2018-02-11T16:53:17.066Z,40.65
2018-02-11T16:55:44.023Z,48.38
2018-02-11T16:58:11.778Z,41.80
2018-02-11T17:00:38.953Z,44.40
2018-02-11T17:03:06.530Z,45.05
2018-02-11T17:05:34.504Z,46.00
2018-02-11T17:08:02.074Z,41.28
2018-02-11T17:10:29.022Z,48.87
2018-02-11T17:12:55.895Z,48.15
2018-02-11T17:15:22.890Z,46.28
2018-02-11T17:17:49.765Z,51.50
2018-02-11T17:20:16.778Z,53.60
2018-02-11T17:22:44.005Z,52.38
2018-02-11T17:25:11.817Z,53.38
2018-02-11T17:27:38.770Z,50.97
2018-02-11T17:30:05.649Z,52.80
2018-02-11T17:32:32.567Z,50.10
2018-02-11T17:35:00.200Z,57.00
2018-02-11T17:37:27.146Z,53.67
2018-02-11T17:39:54.174Z,57.28
2018-02-11T17:42:21.942Z,59.22
2018-02-11T17:44:48.895Z,63.35
2018-02-11T17:47:15.822Z,70.62
2018-02-11T17:49:42.810Z,66.80
2018-02-11T17:52:10.480Z,56.72
2018-02-11T17:54:38.224Z,67.05
2018-02-11T17:57:05.075Z,59.88
2018-02-11T17:59:32.191Z,55.35
2018-02-11T18:01:59.259Z,60.63
2018-02-11T18:04:27.029Z,50.95
2018-02-11T18:06:54.806Z,56.40
2018-02-11T18:09:22.499Z,46.10
2018-02-11T18:11:49.394Z,46.63
2018-02-11T18:14:16.416Z,51.85
2018-02-11T18:16:43.434Z,50.20
2018-02-11T18:19:10.369Z,49.60
2018-02-11T18:21:37.433Z,46.03
2018-02-11T18:24:04.321Z,53.00
2018-02-11T18:26:31.268Z,54.80
2018-02-11T18:28:58.230Z,66.90
2018-02-11T18:31:25.306Z,64.95
2018-02-11T18:33:53.142Z,68.97
2018-02-11T18:36:20.878Z,61.90
2018-02-11T18:38:47.866Z,66.72
2018-02-11T18:41:14.810Z,76.43
2018-02-11T18:43:41.922Z,63.35
2018-02-11T18:46:08.805Z,66.12
2018-02-11T18:48:35.725Z,65.20
2018-02-11T18:51:03.478Z,67.95
2018-02-11T18:53:30.422Z,56.85
2018-02-11T18:55:57.359Z,54.58
2018-02-11T18:58:24.235Z,51.88
2018-02-11T19:00:51.317Z,50.25
2018-02-11T19:03:18.334Z,53.53
2018-02-11T19:05:45.279Z,53.17
2018-02-11T19:08:12.995Z,52.97
2018-02-11T19:10:40.022Z,61.40
2018-02-11T19:13:07.000Z,61.08
2018-02-11T19:15:33.947Z,53.67
2018-02-11T19:18:01.594Z,55.38
2018-02-11T19:20:28.671Z,54.05
2018-02-11T19:22:55.702Z,61.78
2018-02-11T19:25:23.422Z,56.30
2018-02-11T19:27:50.445Z,53.15
2018-02-11T19:30:17.486Z,54.38
2018-02-11T19:32:44.343Z,61.88
2018-02-11T19:35:11.394Z,54.15
2018-02-11T19:37:38.379Z,49.97
2018-02-11T19:40:05.437Z,64.78
2018-02-11T19:42:33.107Z,52.10
2018-02-11T19:45:00.298Z,55.15
2018-02-11T19:47:27.334Z,53.97
2018-02-11T19:49:55.063Z,47.17
2018-02-11T19:52:22.027Z,42.85
2018-02-11T19:54:50.126Z,47.10
2018-02-11T19:57:17.031Z,46.63
2018-02-11T19:59:44.349Z,52.20
2018-02-11T20:02:11.290Z,54.58
2018-02-11T20:04:39.063Z,52.20
2018-02-11T20:07:06.067Z,53.25
2018-02-11T20:09:33.726Z,50.97
2018-02-11T20:12:03.162Z,58.33
2018-02-11T20:14:30.335Z,56.95
2018-02-11T20:16:57.229Z,52.72
2018-02-11T20:19:24.830Z,60.38
2018-02-11T20:21:51.862Z,55.92
2018-02-11T20:24:19.559Z,55.00
2018-02-11T20:26:46.619Z,49.03
2018-02-11T20:29:14.264Z,52.42
2018-02-11T20:31:41.089Z,63.25
2018-02-11T20:34:08.130Z,53.13
2018-02-11T20:36:35.502Z,56.78
2018-02-11T20:39:02.562Z,58.25
2018-02-11T20:41:29.570Z,54.70
2018-02-11T20:43:56.582Z,49.08
2018-02-11T20:46:23.542Z,61.67
2018-02-11T20:48:53.443Z,54.65
2018-02-11T20:51:20.459Z,59.72
2018-02-11T20:53:47.350Z,64.10
2018-02-11T20:56:15.910Z,60.33
2018-02-11T20:58:42.876Z,62.95
2018-02-11T21:01:09.991Z,59.97
2018-02-11T21:03:38.253Z,57.70
2018-02-11T21:06:05.315Z,63.80
2018-02-11T21:08:32.379Z,76.97
2018-02-11T21:10:59.370Z,84.03
2018-02-11T21:13:26.359Z,72.75
2018-02-11T21:15:53.694Z,70.00
2018-02-11T21:18:21.236Z,65.07
2018-02-11T21:20:49.399Z,55.33
2018-02-11T21:23:18.094Z,60.38
2018-02-11T21:25:45.767Z,57.42
2018-02-11T21:28:14.055Z,63.15
2018-02-11T21:30:40.965Z,53.97
2018-02-11T21:33:08.619Z,55.75
2018-02-11T21:35:35.514Z,54.75
2018-02-11T21:38:02.533Z,43.70
2018-02-11T21:40:29.449Z,52.15
2018-02-11T21:42:57.306Z,49.50
2018-02-11T21:45:24.278Z,54.67
2018-02-11T21:47:51.325Z,49.08
2018-02-11T21:50:18.404Z,47.17
2018-02-11T21:52:45.315Z,38.70
2018-02-11T21:55:12.308Z,45.70
2018-02-11T21:57:39.333Z,65.10
2018-02-11T22:02:33.410Z,59.28
2018-02-11T22:05:00.729Z,59.13
2018-02-11T22:07:27.666Z,72.75
2018-02-11T22:09:55.301Z,75.85
2018-02-11T22:12:22.367Z,70.45
2018-02-11T22:14:49.324Z,63.65
2018-02-11T22:17:16.409Z,60.55
2018-02-11T22:19:43.490Z,55.53
2018-02-11T22:22:10.369Z,59.60
2018-02-11T22:24:37.202Z,62.53
2018-02-11T22:27:04.194Z,58.22
2018-02-11T22:29:31.165Z,52.40
2018-02-11T22:31:58.086Z,47.45
2018-02-11T22:34:25.070Z,51.42
2018-02-11T22:36:52.836Z,60.55
2018-02-11T22:39:20.453Z,50.05
2018-02-11T22:41:47.264Z,63.97
2018-02-11T22:44:14.297Z,66.93
2018-02-11T22:46:41.366Z,80.32
2018-02-11T22:49:08.255Z,84.75
2018-02-11T22:51:36.106Z,67.75
2018-02-11T22:54:03.094Z,69.70
2018-02-11T22:56:29.965Z,67.57
2018-02-11T23:01:23.655Z,68.15
2018-02-11T23:03:50.663Z,55.83
2018-02-11T23:06:17.541Z,70.87
2018-02-11T23:08:44.649Z,65.85
2018-02-11T23:11:11.597Z,68.45
2018-02-11T23:13:38.597Z,57.10
2018-02-11T23:16:05.500Z,69.03
2018-02-11T23:18:32.493Z,63.28
2018-02-11T23:20:59.382Z,63.70
2018-02-11T23:23:27.404Z,61.70
2018-02-11T23:25:54.274Z,56.65
2018-02-11T23:28:21.085Z,60.72
2018-02-11T23:30:48.183Z,51.47
2018-02-11T23:33:15.846Z,49.85
2018-02-11T23:35:42.661Z,58.55
2018-02-11T23:38:10.410Z,51.83
2018-02-11T23:40:37.441Z,49.92
2018-02-11T23:43:04.513Z,57.62
2018-02-11T23:45:31.494Z,54.78
2018-02-11T23:47:58.337Z,54.20
2018-02-11T23:50:25.369Z,51.30
2018-02-11T23:52:52.281Z,59.78
2018-02-11T23:55:19.297Z,58.00
2018-02-11T23:57:46.197Z,67.50
